METAR Data
IDs: Format: Raw Decoded Include TAF

Data at: 2231 UTC 02 Aug 2021

EGNX 022220Z 17004KT 120V240 CAVOK 15/12 Q1014